createdAt,value
2023-03-01T00:01:23.890Z,51.65
2023-03-01T00:03:51.622Z,57.92
2023-03-01T00:06:20.159Z,31.65
2023-03-01T00:08:47.955Z,33.95
2023-03-01T00:11:16.694Z,58.67
2023-03-01T00:13:45.224Z,53.72
2023-03-01T00:16:20.452Z,51.38
2023-03-01T00:18:49.379Z,61.95
2023-03-01T00:21:17.489Z,57.45
2023-03-01T00:23:46.520Z,56.10
2023-03-01T00:26:14.355Z,48.35
2023-03-01T00:28:42.452Z,55.08
2023-03-01T00:31:20.845Z,66.63
2023-03-01T00:33:48.528Z,66.88
2023-03-01T00:36:16.412Z,63.33
2023-03-01T00:38:45.181Z,65.72
2023-03-01T00:41:16.415Z,62.72
2023-03-01T00:43:44.808Z,61.58
2023-03-01T00:46:14.186Z,60.55
2023-03-01T00:48:42.082Z,69.18
2023-03-01T00:51:11.265Z,68.78
2023-03-01T00:53:38.868Z,66.65
2023-03-01T00:56:08.958Z,70.82
2023-03-01T00:58:36.904Z,61.63
2023-03-01T01:01:18.725Z,73.95
2023-03-01T01:03:50.566Z,64.78
2023-03-01T01:06:33.118Z,59.58
2023-03-01T01:09:01.112Z,62.78
2023-03-01T01:11:29.686Z,70.90
2023-03-01T01:13:57.612Z,68.40
2023-03-01T01:16:26.707Z,69.95
2023-03-01T01:18:54.501Z,68.00
2023-03-01T01:21:23.962Z,69.40
2023-03-01T01:23:52.637Z,51.57
2023-03-01T01:26:22.709Z,66.20
2023-03-01T01:28:51.054Z,63.13
2023-03-01T01:33:49.763Z,63.40
2023-03-01T01:36:17.325Z,52.30
2023-03-01T01:38:45.051Z,51.15
2023-03-01T01:41:12.989Z,60.22
2023-03-01T01:43:45.659Z,47.78
2023-03-01T01:46:26.435Z,46.25
2023-03-01T01:49:00.077Z,67.40
2023-03-01T01:51:39.444Z,59.35
2023-03-01T01:54:15.825Z,52.92
2023-03-01T01:56:45.421Z,44.42
2023-03-01T01:59:12.935Z,55.25
2023-03-01T02:01:40.727Z,52.95
2023-03-01T02:04:08.597Z,49.47
2023-03-01T02:06:52.626Z,48.97
2023-03-01T02:09:20.359Z,44.63
2023-03-01T02:11:48.430Z,49.90
2023-03-01T02:14:16.851Z,42.40
2023-03-01T02:16:44.497Z,47.90
2023-03-01T02:19:18.605Z,51.80
2023-03-01T02:22:01.954Z,49.97
2023-03-01T02:24:32.785Z,39.72
2023-03-01T02:27:00.414Z,50.83
2023-03-01T02:29:28.012Z,51.38
2023-03-01T02:31:57.639Z,30.77
2023-03-01T02:34:27.844Z,41.08
2023-03-01T02:37:05.706Z,27.65
2023-03-01T02:39:45.750Z,38.67
2023-03-01T02:42:18.388Z,25.73
2023-03-01T02:44:46.103Z,30.52
2023-03-01T02:47:13.846Z,39.65
2023-03-01T02:49:43.329Z,35.38
2023-03-01T02:52:11.630Z,44.08
2023-03-01T02:54:44.241Z,30.80
2023-03-01T02:57:12.478Z,40.20
2023-03-01T02:59:40.602Z,41.22
2023-03-01T03:02:22.111Z,38.80
2023-03-01T03:04:49.753Z,47.00
2023-03-01T03:07:17.997Z,34.80
2023-03-01T03:09:46.284Z,41.92
2023-03-01T03:12:14.107Z,31.13
2023-03-01T03:14:43.997Z,30.33
2023-03-01T03:17:11.562Z,35.63
2023-03-01T03:19:40.309Z,34.25
2023-03-01T03:22:10.072Z,24.38
2023-03-01T03:24:40.963Z,39.75
2023-03-01T03:27:08.756Z,37.92
2023-03-01T03:29:36.326Z,31.40
2023-03-01T03:32:23.771Z,24.83
2023-03-01T03:34:51.407Z,38.03
2023-03-01T03:37:39.418Z,39.10
2023-03-01T03:40:16.595Z,34.92
2023-03-01T03:42:44.394Z,41.28
2023-03-01T03:45:11.989Z,46.65
2023-03-01T03:47:39.791Z,58.67
2023-03-01T03:50:07.830Z,53.72
2023-03-01T03:52:35.924Z,63.13
2023-03-01T03:55:03.726Z,95.70
2023-03-01T03:57:31.404Z,67.00
2023-03-01T03:59:59.387Z,92.88
2023-03-01T04:02:27.461Z,47.58
2023-03-01T04:04:55.324Z,67.70
2023-03-01T04:07:23.050Z,85.80
2023-03-01T04:09:52.390Z,68.45
2023-03-01T04:12:24.149Z,71.78
2023-03-01T04:14:52.086Z,68.25
2023-03-01T04:17:20.183Z,61.33
2023-03-01T04:19:49.860Z,68.78
2023-03-01T04:22:18.539Z,63.38
2023-03-01T04:24:46.468Z,37.40
2023-03-01T04:27:13.958Z,59.85
2023-03-01T04:29:42.173Z,64.30
2023-03-01T04:32:09.933Z,62.40
2023-03-01T04:34:37.764Z,61.88
2023-03-01T04:37:07.877Z,45.70
2023-03-01T04:39:46.899Z,44.35
2023-03-01T04:42:17.944Z,58.58
2023-03-01T04:44:46.141Z,52.63
2023-03-01T04:47:13.969Z,49.47
2023-03-01T04:49:41.544Z,30.25
2023-03-01T04:52:10.327Z,58.72
2023-03-01T04:54:38.290Z,37.38
2023-03-01T04:57:06.013Z,48.20
2023-03-01T04:59:33.597Z,41.97
2023-03-01T05:02:01.573Z,50.20
2023-03-01T05:04:29.367Z,43.97
2023-03-01T05:06:57.411Z,39.30
2023-03-01T05:09:26.466Z,40.65
2023-03-01T05:11:54.400Z,46.92
2023-03-01T05:14:22.931Z,60.10
2023-03-01T05:16:55.859Z,64.63
2023-03-01T05:19:23.912Z,51.53
2023-03-01T05:22:04.851Z,64.97
2023-03-01T05:24:34.169Z,57.30
2023-03-01T05:27:02.913Z,71.15
2023-03-01T05:29:31.588Z,63.28
2023-03-01T05:32:00.236Z,50.88
2023-03-01T05:34:35.405Z,42.10
2023-03-01T05:37:03.924Z,45.25
2023-03-01T05:39:32.755Z,45.53
2023-03-01T05:42:02.357Z,55.05
2023-03-01T05:44:31.380Z,67.78
2023-03-01T05:46:59.731Z,49.25
2023-03-01T05:49:27.777Z,33.17
2023-03-01T05:51:56.543Z,48.95
2023-03-01T05:54:24.725Z,41.05
2023-03-01T05:56:53.850Z,41.72
2023-03-01T05:59:21.685Z,43.55
2023-03-01T06:01:50.087Z,29.45
2023-03-01T06:04:19.573Z,35.35
2023-03-01T06:06:49.773Z,26.98
2023-03-01T06:09:20.792Z,36.78
2023-03-01T06:11:48.888Z,30.88
2023-03-01T06:14:16.596Z,25.02
2023-03-01T06:16:44.660Z,29.08
2023-03-01T06:19:12.488Z,35.80
2023-03-01T06:21:40.658Z,33.13
2023-03-01T06:24:09.564Z,33.65
2023-03-01T06:26:37.476Z,20.38
2023-03-01T06:29:05.325Z,29.50
2023-03-01T06:31:35.936Z,27.35
2023-03-01T06:34:03.851Z,21.83
2023-03-01T06:36:35.546Z,19.80
2023-03-01T06:39:04.554Z,25.70
2023-03-01T06:41:34.948Z,25.75
2023-03-01T06:44:04.505Z,18.45
2023-03-01T06:46:35.446Z,22.60
2023-03-01T06:49:05.678Z,23.73
2023-03-01T06:51:33.946Z,29.52
2023-03-01T06:54:01.859Z,24.58
2023-03-01T06:56:30.383Z,25.85
2023-03-01T06:58:58.533Z,24.95
2023-03-01T07:01:26.413Z,27.58
2023-03-01T07:03:54.535Z,14.15
2023-03-01T07:06:26.062Z,15.82
2023-03-01T07:08:57.582Z,19.80
2023-03-01T07:11:28.320Z,21.40
2023-03-01T07:13:57.649Z,21.25
2023-03-01T07:16:33.570Z,18.30
2023-03-01T07:19:06.198Z,19.27
2023-03-01T07:21:36.755Z,14.18
2023-03-01T07:24:05.252Z,17.67
2023-03-01T07:26:33.218Z,16.85
2023-03-01T07:29:02.351Z,14.85
2023-03-01T07:31:30.995Z,22.17
2023-03-01T07:34:04.214Z,19.17
2023-03-01T07:36:33.303Z,17.15
2023-03-01T07:39:03.628Z,19.65
2023-03-01T07:41:31.697Z,18.65
2023-03-01T07:43:59.899Z,20.05
2023-03-01T07:46:29.936Z,16.77
2023-03-01T07:48:59.185Z,18.25
2023-03-01T07:54:15.444Z,15.18
2023-03-01T07:57:01.208Z,13.93
2023-03-01T07:59:31.747Z,18.33
2023-03-01T08:02:02.141Z,17.15
2023-03-01T08:04:33.572Z,18.83
2023-03-01T08:07:20.264Z,13.75
2023-03-01T08:10:08.893Z,17.75
2023-03-01T08:12:40.108Z,23.55
2023-03-01T08:15:09.535Z,21.55
2023-03-01T08:17:45.627Z,18.33
2023-03-01T08:20:14.006Z,16.00
2023-03-01T08:22:42.280Z,19.98
2023-03-01T08:28:06.156Z,10.75
2023-03-01T08:30:38.494Z,15.93
2023-03-01T08:33:07.818Z,19.00
2023-03-01T08:35:43.297Z,23.17
2023-03-01T08:38:14.731Z,22.75
2023-03-01T08:40:44.098Z,18.13
2023-03-01T08:43:26.469Z,11.73
2023-03-01T08:46:06.019Z,18.23
2023-03-01T08:48:36.293Z,15.32
2023-03-01T08:51:28.304Z,17.33
2023-03-01T08:53:58.674Z,23.00
2023-03-01T08:56:33.568Z,14.75
2023-03-01T08:59:04.737Z,20.45
2023-03-01T09:01:32.882Z,15.73
2023-03-01T09:04:00.959Z,14.77
2023-03-01T09:06:41.882Z,13.10
2023-03-01T09:09:19.776Z,17.50
2023-03-01T09:11:48.114Z,29.80
2023-03-01T09:14:22.704Z,15.60
2023-03-01T09:16:51.779Z,16.98
2023-03-01T09:19:27.386Z,15.75
2023-03-01T09:22:00.500Z,11.32
2023-03-01T09:24:28.819Z,24.50
2023-03-01T09:26:57.301Z,21.90
2023-03-01T09:29:30.102Z,12.38
2023-03-01T09:32:05.435Z,14.43
2023-03-01T09:34:53.967Z,12.10
2023-03-01T09:37:25.512Z,11.48
2023-03-01T09:39:53.477Z,10.48
2023-03-01T09:42:25.422Z,17.90
2023-03-01T09:44:59.345Z,17.95
2023-03-01T09:47:32.023Z,16.45
2023-03-01T09:50:18.118Z,14.35
2023-03-01T09:53:07.447Z,17.73
2023-03-01T09:55:41.885Z,11.75
2023-03-01T09:58:30.602Z,18.67
2023-03-01T10:01:08.582Z,15.25
2023-03-01T10:04:01.591Z,16.90
2023-03-01T10:06:36.437Z,15.57
2023-03-01T10:11:41.433Z,15.30
2023-03-01T10:14:36.381Z,18.52
2023-03-01T10:17:31.836Z,15.15
2023-03-01T10:20:31.604Z,14.63
2023-03-01T10:23:00.251Z,15.70
2023-03-01T10:25:47.234Z,13.27
2023-03-01T10:28:47.075Z,18.05
2023-03-01T10:31:29.657Z,11.93
2023-03-01T10:34:00.214Z,13.10
2023-03-01T10:36:30.357Z,12.52
2023-03-01T10:38:59.351Z,12.73
2023-03-01T10:41:33.334Z,18.88
2023-03-01T10:44:02.149Z,15.32
2023-03-01T10:46:44.529Z,15.55
2023-03-01T10:49:21.204Z,14.35
2023-03-01T10:51:52.732Z,14.38
2023-03-01T10:54:30.686Z,17.52
2023-03-01T10:57:05.944Z,18.75
2023-03-01T10:59:35.829Z,13.25
2023-03-01T11:03:13.422Z,13.43
2023-03-01T11:06:05.566Z,15.02
2023-03-01T11:08:55.352Z,14.30
2023-03-01T11:11:34.818Z,14.73
2023-03-01T11:14:26.919Z,12.40
2023-03-01T11:17:05.477Z,19.80
2023-03-01T11:19:38.440Z,25.42
2023-03-01T11:22:13.012Z,21.95
2023-03-01T11:25:10.079Z,16.33
2023-03-01T11:27:41.583Z,16.17
2023-03-01T11:30:29.543Z,15.30
2023-03-01T11:33:09.914Z,17.48
2023-03-01T11:35:44.470Z,22.27
2023-03-01T11:38:13.316Z,21.00
2023-03-01T11:40:56.059Z,23.55
2023-03-01T11:43:33.392Z,20.20
2023-03-01T11:46:24.153Z,19.13
2023-03-01T11:49:10.721Z,22.77
2023-03-01T11:51:49.464Z,28.48
2023-03-01T11:54:24.881Z,25.67
2023-03-01T11:57:03.301Z,32.58
2023-03-01T12:00:05.047Z,24.55
2023-03-01T12:02:36.439Z,26.95
2023-03-01T12:05:37.686Z,28.77
2023-03-01T12:08:28.916Z,25.23
2023-03-01T12:11:22.544Z,31.70
2023-03-01T12:14:11.935Z,27.52
2023-03-01T12:17:04.050Z,20.63
2023-03-01T12:20:02.902Z,22.83
2023-03-01T12:22:44.512Z,18.35
2023-03-01T12:25:51.730Z,23.75
2023-03-01T12:28:37.688Z,22.48
2023-03-01T12:31:48.690Z,20.52
2023-03-01T12:34:54.859Z,32.33
2023-03-01T12:37:44.122Z,27.33
2023-03-01T12:40:33.231Z,31.73
2023-03-01T12:43:16.237Z,21.98
2023-03-01T12:45:44.373Z,29.23
2023-03-01T12:48:24.063Z,24.45
2023-03-01T12:50:56.044Z,24.15
2023-03-01T12:53:34.410Z,24.83
2023-03-01T12:56:08.312Z,23.38
2023-03-01T12:58:49.526Z,25.40
2023-03-01T13:01:33.067Z,22.55
2023-03-01T13:04:14.406Z,20.52
2023-03-01T13:07:09.657Z,18.00
2023-03-01T13:09:48.483Z,32.63
2023-03-01T13:12:45.395Z,31.75
2023-03-01T13:15:26.879Z,23.50
2023-03-01T13:18:01.428Z,27.92
2023-03-01T13:20:43.830Z,22.35
2023-03-01T13:23:26.632Z,20.67
2023-03-01T13:26:09.973Z,22.10
2023-03-01T13:28:50.572Z,18.45
2023-03-01T13:31:28.014Z,30.35
2023-03-01T13:33:59.072Z,25.42
2023-03-01T13:36:32.733Z,25.23
2023-03-01T13:39:33.612Z,77.75
2023-03-01T13:42:04.757Z,63.35
2023-03-01T13:44:40.102Z,23.02
2023-03-01T13:47:19.074Z,27.33
2023-03-01T13:50:05.534Z,18.50
2023-03-01T13:53:02.423Z,29.10
2023-03-01T13:55:46.842Z,19.27
2023-03-01T13:58:27.392Z,17.75
2023-03-01T14:01:02.207Z,21.40
2023-03-01T14:03:31.043Z,28.80
2023-03-01T14:06:14.213Z,30.13
2023-03-01T14:08:45.253Z,25.77
2023-03-01T14:11:24.329Z,20.52
2023-03-01T14:14:29.303Z,23.30
2023-03-01T14:17:25.070Z,20.08
2023-03-01T14:19:58.024Z,30.33
2023-03-01T14:22:29.420Z,20.17
2023-03-01T14:25:02.172Z,25.40
2023-03-01T14:27:40.668Z,35.05
2023-03-01T14:30:23.691Z,25.63
2023-03-01T14:33:00.270Z,23.30
2023-03-01T14:35:32.949Z,31.52
2023-03-01T14:38:01.630Z,29.40
2023-03-01T14:40:34.923Z,37.65
2023-03-01T14:43:03.961Z,30.15
2023-03-01T14:45:34.569Z,28.48
2023-03-01T14:48:05.124Z,28.73
2023-03-01T14:50:48.903Z,28.00
2023-03-01T14:53:29.670Z,27.85
2023-03-01T14:56:03.624Z,33.30
2023-03-01T14:58:39.126Z,20.70
2023-03-01T15:01:10.728Z,23.95
2023-03-01T15:03:52.253Z,27.92
2023-03-01T15:06:22.198Z,26.60
2023-03-01T15:08:55.059Z,30.52
2023-03-01T15:11:31.185Z,18.95
2023-03-01T15:14:01.068Z,25.35
2023-03-01T15:16:31.142Z,38.63
2023-03-01T15:19:07.048Z,32.17
2023-03-01T15:21:36.338Z,26.58
2023-03-01T15:24:23.221Z,27.95
2023-03-01T15:27:03.046Z,24.67
2023-03-01T15:29:34.443Z,27.52
2023-03-01T15:32:07.259Z,32.95
2023-03-01T15:34:39.631Z,25.83
2023-03-01T15:37:41.990Z,20.52
2023-03-01T15:40:22.042Z,32.33
2023-03-01T15:42:49.900Z,24.58
2023-03-01T15:45:22.049Z,23.58
2023-03-01T15:47:54.284Z,28.92
2023-03-01T15:50:34.255Z,30.50
2023-03-01T15:53:05.556Z,35.50
2023-03-01T15:55:34.579Z,29.63
2023-03-01T15:58:11.554Z,28.98
2023-03-01T16:00:46.328Z,26.25
2023-03-01T16:03:25.931Z,23.25
2023-03-01T16:05:55.096Z,26.45
2023-03-01T16:08:23.052Z,32.63
2023-03-01T16:10:52.871Z,24.00
2023-03-01T16:13:22.499Z,31.02
2023-03-01T16:15:52.777Z,32.25
2023-03-01T16:18:23.020Z,27.38
2023-03-01T16:20:51.098Z,26.15
2023-03-01T16:23:19.212Z,31.02
2023-03-01T16:25:47.414Z,32.33
2023-03-01T16:28:15.550Z,33.45
2023-03-01T16:30:48.519Z,32.05
2023-03-01T16:33:26.958Z,27.65
2023-03-01T16:36:06.937Z,32.53
2023-03-01T16:38:36.062Z,32.55
2023-03-01T16:41:05.192Z,31.98
2023-03-01T16:43:33.484Z,24.15
2023-03-01T16:46:05.419Z,30.90
2023-03-01T16:48:34.597Z,31.73
2023-03-01T16:51:06.549Z,35.97
2023-03-01T16:53:47.871Z,41.40
2023-03-01T16:56:16.233Z,25.75
2023-03-01T16:58:44.480Z,38.53
2023-03-01T17:01:15.129Z,40.33
2023-03-01T17:03:43.473Z,34.40
2023-03-01T17:06:16.823Z,21.83
2023-03-01T17:08:45.617Z,27.80
2023-03-01T17:11:18.260Z,40.63
2023-03-01T17:13:57.151Z,36.55
2023-03-01T17:16:25.688Z,40.80
2023-03-01T17:18:58.629Z,44.05
2023-03-01T17:21:27.445Z,40.08
2023-03-01T17:24:16.011Z,38.75
2023-03-01T17:26:46.939Z,74.82
2023-03-01T17:29:18.630Z,67.03
2023-03-01T17:34:14.556Z,23.10
2023-03-01T17:36:44.270Z,37.65
2023-03-01T17:39:12.432Z,36.72
2023-03-01T17:41:40.320Z,44.35
2023-03-01T17:44:08.255Z,26.08
2023-03-01T17:46:37.013Z,32.10
2023-03-01T17:49:09.958Z,32.97
2023-03-01T17:51:50.386Z,27.73
2023-03-01T17:54:18.226Z,38.70
2023-03-01T17:56:46.749Z,51.60
2023-03-01T17:59:17.847Z,51.30
2023-03-01T18:01:45.937Z,34.88
2023-03-01T18:04:18.811Z,44.05
2023-03-01T18:06:47.614Z,37.72
2023-03-01T18:09:15.620Z,37.97
2023-03-01T18:11:52.224Z,42.20
2023-03-01T18:14:20.085Z,43.97
2023-03-01T18:16:51.638Z,47.13
2023-03-01T18:19:34.386Z,43.40
2023-03-01T18:22:02.988Z,44.58
2023-03-01T18:24:30.851Z,38.15
2023-03-01T18:26:58.766Z,44.00
2023-03-01T18:29:26.731Z,44.40
2023-03-01T18:31:54.779Z,40.55
2023-03-01T18:34:23.437Z,43.70
2023-03-01T18:37:08.437Z,42.30
2023-03-01T18:39:38.735Z,37.05
2023-03-01T18:42:09.101Z,38.47
2023-03-01T18:44:38.715Z,36.42
2023-03-01T18:47:06.557Z,35.03
2023-03-01T18:49:34.436Z,42.05
2023-03-01T18:52:03.991Z,37.72
2023-03-01T18:54:32.418Z,40.20
2023-03-01T18:57:00.760Z,43.88
2023-03-01T18:59:31.333Z,38.40
2023-03-01T19:02:00.587Z,32.50
2023-03-01T19:04:29.118Z,42.63
2023-03-01T19:07:02.432Z,30.50
2023-03-01T19:09:35.881Z,34.75
2023-03-01T19:12:06.484Z,39.67
2023-03-01T19:14:35.118Z,34.25
2023-03-01T19:17:04.407Z,40.45
2023-03-01T19:19:32.544Z,37.17
2023-03-01T19:22:05.909Z,36.45
2023-03-01T19:24:35.835Z,36.20
2023-03-01T19:27:03.736Z,39.50
2023-03-01T19:29:36.108Z,38.22
2023-03-01T19:32:04.560Z,36.85
2023-03-01T19:34:33.198Z,38.08
2023-03-01T19:37:02.077Z,38.70
2023-03-01T19:39:30.478Z,35.13
2023-03-01T19:42:02.780Z,35.03
2023-03-01T19:44:31.816Z,39.97
2023-03-01T19:47:00.317Z,40.72
2023-03-01T19:49:37.122Z,39.47
2023-03-01T19:52:05.793Z,45.55
2023-03-01T19:54:34.584Z,44.88
2023-03-01T19:57:03.203Z,41.90
2023-03-01T19:59:31.800Z,41.63
2023-03-01T20:02:00.698Z,40.75
2023-03-01T20:04:29.580Z,37.58
2023-03-01T20:07:01.508Z,38.90
2023-03-01T20:09:30.606Z,30.98
2023-03-01T20:11:59.237Z,36.03
2023-03-01T20:14:27.336Z,37.67
2023-03-01T20:16:55.172Z,32.88
2023-03-01T20:19:23.745Z,38.00
2023-03-01T20:21:53.978Z,33.58
2023-03-01T20:24:21.979Z,48.75
2023-03-01T20:26:50.138Z,38.80
2023-03-01T20:29:18.066Z,45.38
2023-03-01T20:31:46.018Z,44.50
2023-03-01T20:34:14.390Z,44.95
2023-03-01T20:36:45.069Z,46.55
2023-03-01T20:39:14.394Z,43.15
2023-03-01T20:41:42.125Z,44.13
2023-03-01T20:44:13.305Z,48.47
2023-03-01T20:46:41.276Z,43.72
2023-03-01T20:49:10.847Z,46.05
2023-03-01T20:51:38.627Z,43.55
2023-03-01T20:54:07.406Z,50.83
2023-03-01T20:56:35.968Z,43.03
2023-03-01T20:59:10.830Z,42.97
2023-03-01T21:01:40.583Z,46.42
2023-03-01T21:04:23.752Z,45.53
2023-03-01T21:06:52.140Z,48.72
2023-03-01T21:09:21.112Z,44.42
2023-03-01T21:11:52.274Z,43.55
2023-03-01T21:16:50.053Z,63.35
2023-03-01T21:19:18.544Z,62.10
2023-03-01T21:21:46.324Z,95.50
2023-03-01T21:24:15.319Z,93.18
2023-03-01T21:26:43.542Z,81.22
2023-03-01T21:29:11.522Z,49.67
2023-03-01T21:31:39.849Z,44.80
2023-03-01T21:34:07.818Z,42.65
2023-03-01T21:36:36.566Z,48.42
2023-03-01T21:39:05.553Z,48.70
2023-03-01T21:41:34.922Z,49.67
2023-03-01T21:44:03.916Z,52.10
2023-03-01T21:46:33.472Z,52.20
2023-03-01T21:49:04.818Z,56.33
2023-03-01T21:51:32.666Z,53.28
2023-03-01T21:54:03.186Z,53.20
2023-03-01T21:56:32.230Z,53.53
2023-03-01T21:59:01.069Z,56.78
2023-03-01T22:01:29.046Z,55.90
2023-03-01T22:03:57.830Z,50.88
2023-03-01T22:06:34.248Z,49.78
2023-03-01T22:09:16.085Z,50.00
2023-03-01T22:14:13.948Z,47.60
2023-03-01T22:16:43.562Z,55.55
2023-03-01T22:19:11.940Z,51.10
2023-03-01T22:21:40.854Z,50.10
2023-03-01T22:24:09.376Z,61.42
2023-03-01T22:26:41.876Z,51.53
2023-03-01T22:29:14.422Z,53.50
2023-03-01T22:31:42.676Z,49.38
2023-03-01T22:34:10.465Z,56.00
2023-03-01T22:36:39.878Z,52.22
2023-03-01T22:39:07.705Z,49.22
2023-03-01T22:41:37.505Z,47.13
2023-03-01T22:44:05.435Z,43.63
2023-03-01T22:46:33.455Z,39.80
2023-03-01T22:49:01.483Z,38.08
2023-03-01T22:51:30.636Z,38.08
2023-03-01T22:53:58.528Z,38.40
2023-03-01T22:56:31.578Z,39.40
2023-03-01T22:59:00.879Z,44.58
2023-03-01T23:01:29.036Z,39.55
2023-03-01T23:03:59.251Z,32.13
2023-03-01T23:06:30.916Z,47.97
2023-03-01T23:09:04.746Z,43.15
2023-03-01T23:11:32.780Z,37.92
2023-03-01T23:14:00.629Z,45.72
2023-03-01T23:16:28.440Z,45.65
2023-03-01T23:18:56.456Z,42.95
2023-03-01T23:21:27.111Z,42.42
2023-03-01T23:23:56.078Z,42.67
2023-03-01T23:26:26.339Z,38.30
2023-03-01T23:28:55.140Z,40.22
2023-03-01T23:31:23.463Z,43.90
2023-03-01T23:33:52.312Z,45.90
2023-03-01T23:36:28.142Z,36.55
2023-03-01T23:39:00.586Z,45.17
2023-03-01T23:41:30.206Z,37.22
2023-03-01T23:43:59.803Z,46.95
2023-03-01T23:46:32.625Z,40.85
2023-03-01T23:49:00.856Z,43.08
2023-03-01T23:51:29.943Z,42.75
2023-03-01T23:54:00.240Z,49.00
2023-03-01T23:56:29.882Z,44.92
2023-03-01T23:58:58.994Z,48.55
